createdAt,value
2023-03-13T00:02:04.158Z,11.40
2023-03-13T00:07:10.279Z,11.40
2023-03-13T00:12:12.750Z,11.40
2023-03-13T00:17:15.111Z,11.50
2023-03-13T00:22:19.022Z,11.50
2023-03-13T00:27:21.441Z,11.50
2023-03-13T00:32:24.082Z,11.50
2023-03-13T00:37:28.158Z,11.50
2023-03-13T00:42:30.630Z,11.60
2023-03-13T00:47:33.127Z,11.60
2023-03-13T00:52:37.150Z,11.60
2023-03-13T00:57:39.629Z,11.60
2023-03-13T01:02:42.965Z,11.60
2023-03-13T01:07:46.978Z,11.60
2023-03-13T01:12:49.474Z,11.60
2023-03-13T01:17:51.889Z,11.50
2023-03-13T01:22:55.887Z,11.40
2023-03-13T01:27:58.740Z,11.40
2023-03-13T01:33:01.188Z,11.30
2023-03-13T01:38:05.334Z,11.20
2023-03-13T01:43:26.589Z,11.20
2023-03-13T01:48:39.346Z,11.10
2023-03-13T01:53:47.636Z,11.10
2023-03-13T01:58:52.999Z,11.10
2023-03-13T02:03:58.073Z,11.10
2023-03-13T02:09:05.463Z,11.00
2023-03-13T02:14:08.233Z,11.00
2023-03-13T02:19:19.354Z,11.00
2023-03-13T02:24:33.399Z,11.00
2023-03-13T02:29:37.369Z,11.00
2023-03-13T02:34:42.524Z,11.00
2023-03-13T02:39:48.358Z,11.00
2023-03-13T02:44:52.473Z,11.00
2023-03-13T02:49:54.760Z,11.00
2023-03-13T02:55:01.633Z,11.00
2023-03-13T03:00:07.847Z,11.00
2023-03-13T03:05:11.653Z,10.90
2023-03-13T03:10:14.106Z,10.90
2023-03-13T03:15:20.846Z,10.90
2023-03-13T03:20:23.285Z,10.90
2023-03-13T03:25:25.714Z,11.00
2023-03-13T03:30:29.835Z,10.90
2023-03-13T03:35:32.353Z,10.90
2023-03-13T03:40:34.718Z,10.90
2023-03-13T03:45:38.684Z,10.90
2023-03-13T03:50:41.150Z,10.90
2023-03-13T03:55:43.447Z,11.00
2023-03-13T04:00:48.733Z,11.00
2023-03-13T04:05:51.253Z,11.00
2023-03-13T04:10:53.668Z,11.00
2023-03-13T04:15:57.533Z,11.00
2023-03-13T04:21:05.400Z,11.10
2023-03-13T04:26:07.820Z,11.10
2023-03-13T04:31:12.033Z,11.20
2023-03-13T04:36:14.604Z,11.20
2023-03-13T04:41:17.162Z,11.30
2023-03-13T04:46:21.233Z,11.30
2023-03-13T04:51:23.529Z,11.30
2023-03-13T04:56:42.374Z,11.40
2023-03-13T05:01:47.240Z,11.50
2023-03-13T05:06:49.534Z,11.50
2023-03-13T05:11:51.752Z,11.60
2023-03-13T05:16:55.604Z,11.70
2023-03-13T05:21:57.933Z,11.70
2023-03-13T05:27:00.242Z,11.80
2023-03-13T05:32:03.978Z,11.90
2023-03-13T05:37:06.690Z,12.00
2023-03-13T05:42:09.324Z,12.10
2023-03-13T05:47:14.389Z,12.20
2023-03-13T05:52:16.745Z,12.30
2023-03-13T05:57:19.099Z,12.40
2023-03-13T06:02:23.134Z,12.40
2023-03-13T06:07:26.937Z,12.50
2023-03-13T06:12:32.099Z,12.50
2023-03-13T06:17:36.094Z,12.60
2023-03-13T06:22:38.440Z,12.70
2023-03-13T06:27:41.703Z,12.70
2023-03-13T06:32:45.994Z,12.70
2023-03-13T06:37:48.560Z,12.80
2023-03-13T06:42:50.949Z,12.80
2023-03-13T06:47:55.616Z,12.90
2023-03-13T06:52:58.039Z,13.00
2023-03-13T06:58:00.424Z,13.00
2023-03-13T07:03:04.536Z,13.10
2023-03-13T07:08:07.219Z,13.20
2023-03-13T07:13:09.675Z,13.20
2023-03-13T07:18:13.805Z,13.30
2023-03-13T07:23:16.401Z,13.40
2023-03-13T07:28:18.874Z,13.50
2023-03-13T07:33:22.720Z,13.50
2023-03-13T07:38:25.347Z,13.50
2023-03-13T07:43:27.907Z,13.60
2023-03-13T07:48:34.056Z,13.60
2023-03-13T07:53:36.643Z,13.70
2023-03-13T07:58:41.306Z,13.70
2023-03-13T08:03:46.418Z,13.80
2023-03-13T08:08:49.228Z,13.90
2023-03-13T08:13:52.208Z,13.90
2023-03-13T08:18:58.662Z,14.00
2023-03-13T08:24:06.826Z,14.00
2023-03-13T08:29:11.822Z,14.10
2023-03-13T08:34:17.341Z,14.10
2023-03-13T08:39:22.455Z,14.10
2023-03-13T08:44:24.939Z,14.20
2023-03-13T08:49:28.851Z,14.20
2023-03-13T08:54:31.316Z,14.20
2023-03-13T08:59:33.759Z,14.20
2023-03-13T09:04:38.133Z,14.20
2023-03-13T09:09:40.556Z,14.30
2023-03-13T09:14:42.906Z,14.30
2023-03-13T09:19:59.433Z,14.40
2023-03-13T09:25:03.417Z,14.80
2023-03-13T09:30:07.391Z,15.20
2023-03-13T09:35:11.707Z,15.40
2023-03-13T09:40:17.257Z,15.60
2023-03-13T09:45:27.790Z,15.80
2023-03-13T09:50:34.917Z,16.00
2023-03-13T09:55:38.568Z,16.20
2023-03-13T10:00:43.821Z,16.30
2023-03-13T10:05:52.047Z,16.20
2023-03-13T10:11:01.189Z,16.00
2023-03-13T10:16:08.324Z,15.90
2023-03-13T10:21:18.142Z,15.70
2023-03-13T10:26:27.521Z,15.50
2023-03-13T10:31:33.385Z,15.50
2023-03-13T10:36:43.290Z,15.60
2023-03-13T10:41:48.825Z,15.70
2023-03-13T10:46:52.076Z,15.80
2023-03-13T10:52:01.180Z,16.10
2023-03-13T10:57:23.549Z,16.60
2023-03-13T11:02:32.464Z,16.90
2023-03-13T11:07:38.392Z,17.20
2023-03-13T11:12:46.023Z,17.40
2023-03-13T11:17:52.756Z,17.70
2023-03-13T11:23:15.811Z,17.70
2023-03-13T11:28:28.943Z,17.80
2023-03-13T11:33:45.025Z,18.00
2023-03-13T11:38:53.389Z,18.30
2023-03-13T11:44:17.355Z,18.40
2023-03-13T11:49:39.652Z,18.30
2023-03-13T11:55:13.007Z,18.30
2023-03-13T12:00:29.291Z,18.20
2023-03-13T12:05:41.868Z,18.30
2023-03-13T12:10:52.627Z,18.40
2023-03-13T12:15:57.827Z,18.50
2023-03-13T12:21:05.636Z,18.50
2023-03-13T12:26:14.191Z,18.50
2023-03-13T12:31:26.127Z,18.60
2023-03-13T12:36:36.693Z,18.80
2023-03-13T12:41:43.625Z,19.10
2023-03-13T12:46:48.693Z,19.60
2023-03-13T12:52:08.343Z,20.00
2023-03-13T12:57:22.433Z,20.30
2023-03-13T13:02:29.092Z,20.50
2023-03-13T13:07:34.028Z,20.70
2023-03-13T13:12:39.017Z,20.70
2023-03-13T13:17:50.669Z,20.50
2023-03-13T13:22:53.840Z,20.20
2023-03-13T13:28:24.359Z,20.00
2023-03-13T13:33:40.154Z,19.70
2023-03-13T13:38:45.754Z,19.50
2023-03-13T13:44:10.415Z,19.50
2023-03-13T13:49:18.826Z,19.60
2023-03-13T13:54:52.775Z,19.70
2023-03-13T14:00:03.512Z,19.80
2023-03-13T14:05:15.740Z,19.80
2023-03-13T14:10:37.201Z,19.80
2023-03-13T14:15:45.080Z,19.80
2023-03-13T14:21:02.024Z,19.70
2023-03-13T14:26:11.783Z,19.60
2023-03-13T14:31:28.765Z,19.50
2023-03-13T14:36:31.211Z,19.50
2023-03-13T14:41:40.200Z,19.40
2023-03-13T14:46:44.356Z,19.30
2023-03-13T14:51:50.165Z,19.30
2023-03-13T14:57:12.870Z,19.20
2023-03-13T15:02:22.317Z,19.10
2023-03-13T15:07:26.727Z,19.00
2023-03-13T15:12:31.723Z,19.00
2023-03-13T15:17:35.790Z,18.90
2023-03-13T15:22:40.384Z,18.80
2023-03-13T15:27:42.966Z,18.70
2023-03-13T15:32:47.263Z,18.70
2023-03-13T15:37:50.379Z,18.60
2023-03-13T15:42:53.216Z,18.60
2023-03-13T15:47:57.157Z,18.60
2023-03-13T15:53:52.264Z,18.50
2023-03-13T15:59:19.311Z,18.50
2023-03-13T16:04:38.437Z,18.30
2023-03-13T16:09:49.120Z,18.20
2023-03-13T16:14:53.631Z,18.10
2023-03-13T16:20:00.224Z,18.00
2023-03-13T16:25:09.639Z,17.90
2023-03-13T16:30:51.188Z,17.70
2023-03-13T16:42:27.116Z,17.40
2023-03-13T16:47:41.184Z,17.20
2023-03-13T16:52:44.744Z,17.00
2023-03-13T17:04:15.582Z,16.70
2023-03-13T17:09:27.784Z,16.50
2023-03-13T17:15:17.111Z,16.40
2023-03-13T17:21:06.110Z,16.20
2023-03-13T17:26:50.102Z,16.00
2023-03-13T17:32:07.051Z,15.90
2023-03-13T17:37:22.491Z,15.70
2023-03-13T17:42:35.605Z,15.50
2023-03-13T17:47:56.314Z,15.40
2023-03-13T17:53:01.296Z,15.30
2023-03-13T17:58:03.560Z,15.10
2023-03-13T18:03:07.059Z,15.00
2023-03-13T18:08:11.353Z,14.90
2023-03-13T18:13:13.522Z,14.80
2023-03-13T18:18:17.477Z,14.70
2023-03-13T18:23:19.623Z,14.60
2023-03-13T18:28:21.727Z,14.50
2023-03-13T18:33:25.258Z,14.50
2023-03-13T18:38:28.713Z,14.50
2023-03-13T18:43:30.920Z,14.40
2023-03-13T18:48:34.430Z,14.30
2023-03-13T18:53:36.538Z,14.20
2023-03-13T18:58:38.703Z,14.20
2023-03-13T19:03:42.673Z,14.20
2023-03-13T19:08:45.343Z,14.20
2023-03-13T19:13:47.839Z,14.10
2023-03-13T19:18:52.027Z,14.00
2023-03-13T19:23:54.799Z,14.00
2023-03-13T19:28:57.319Z,13.90
2023-03-13T19:34:00.813Z,13.90
2023-03-13T19:39:03.087Z,13.80
2023-03-13T19:44:05.404Z,13.70
2023-03-13T19:49:11.023Z,13.70
2023-03-13T19:54:13.767Z,13.60
2023-03-13T19:59:17.477Z,13.60
2023-03-13T20:04:21.015Z,13.60
2023-03-13T20:09:23.289Z,13.60
2023-03-13T20:14:25.439Z,13.60
2023-03-13T20:19:29.138Z,13.50
2023-03-13T20:24:32.559Z,13.50
2023-03-13T20:29:34.799Z,13.40
2023-03-13T20:34:38.482Z,13.40
2023-03-13T20:39:40.726Z,13.40
2023-03-13T20:44:42.800Z,13.40
2023-03-13T20:49:46.286Z,13.30
2023-03-13T20:54:48.558Z,13.20
2023-03-13T20:59:50.759Z,13.20
2023-03-13T21:04:54.327Z,13.10
2023-03-13T21:09:56.518Z,13.10
2023-03-13T21:14:58.737Z,13.00
2023-03-13T21:20:02.397Z,12.90
2023-03-13T21:25:05.342Z,12.80
2023-03-13T21:30:09.064Z,12.80
2023-03-13T21:35:14.171Z,12.80
2023-03-13T21:40:16.667Z,12.80
2023-03-13T21:45:18.982Z,12.80
2023-03-13T21:50:22.592Z,12.80
2023-03-13T21:55:25.150Z,12.80
2023-03-13T22:00:27.391Z,12.80
2023-03-13T22:05:31.055Z,12.80
2023-03-13T22:10:33.133Z,12.80
2023-03-13T22:15:35.343Z,12.80
2023-03-13T22:20:39.293Z,12.80
2023-03-13T22:25:42.695Z,12.80
2023-03-13T22:30:44.819Z,12.80
2023-03-13T22:35:51.155Z,12.70
2023-03-13T22:40:58.879Z,12.80
2023-03-13T22:46:01.815Z,12.80
2023-03-13T22:51:08.962Z,12.80
2023-03-13T22:56:11.409Z,12.90
2023-03-13T23:01:15.128Z,12.90
2023-03-13T23:06:21.993Z,12.90
2023-03-13T23:11:24.078Z,12.90
2023-03-13T23:16:26.276Z,12.90
2023-03-13T23:21:29.889Z,12.90
2023-03-13T23:26:32.029Z,12.90
2023-03-13T23:31:34.187Z,12.80
2023-03-13T23:36:37.753Z,12.80
2023-03-13T23:41:39.851Z,12.90
2023-03-13T23:46:41.917Z,12.90
2023-03-13T23:51:45.512Z,12.80
2023-03-13T23:56:47.606Z,12.80
